createdAt,value
2022-09-18T00:00:48.532Z,11.80
2022-09-18T00:03:52.118Z,11.80
2022-09-18T00:06:54.966Z,11.70
2022-09-18T00:09:57.883Z,11.70
2022-09-18T00:13:02.214Z,11.70
2022-09-18T00:16:05.847Z,11.70
2022-09-18T00:19:09.070Z,11.60
2022-09-18T00:22:11.890Z,11.50
2022-09-18T00:25:14.894Z,11.50
2022-09-18T00:28:19.109Z,11.60
2022-09-18T00:31:25.562Z,11.50
2022-09-18T00:34:28.744Z,11.50
2022-09-18T00:37:31.604Z,11.50
2022-09-18T00:40:34.517Z,11.50
2022-09-18T00:43:39.165Z,11.50
2022-09-18T00:46:43.469Z,11.50
2022-09-18T00:49:49.952Z,11.50
2022-09-18T00:52:58.808Z,11.50
2022-09-18T00:56:04.521Z,11.50
2022-09-18T00:59:09.711Z,11.50
2022-09-18T01:02:13.348Z,11.40
2022-09-18T01:05:20.033Z,11.40
2022-09-18T01:08:41.908Z,11.30
2022-09-18T01:11:52.356Z,11.30
2022-09-18T01:15:04.931Z,11.30
2022-09-18T01:18:17.136Z,11.30
2022-09-18T01:21:27.007Z,11.20
2022-09-18T01:24:46.952Z,11.20
2022-09-18T01:28:12.631Z,11.20
2022-09-18T01:31:20.634Z,11.20
2022-09-18T01:34:29.173Z,11.20
2022-09-18T01:37:36.950Z,11.10
2022-09-18T01:40:43.681Z,11.30
2022-09-18T01:43:53.944Z,11.10
2022-09-18T01:46:59.048Z,11.00
2022-09-18T01:50:03.766Z,11.00
2022-09-18T01:53:11.806Z,11.00
2022-09-18T01:56:19.773Z,11.00
2022-09-18T01:59:28.622Z,10.90
2022-09-18T02:02:36.035Z,11.00
2022-09-18T02:05:42.566Z,11.00
2022-09-18T02:08:48.877Z,11.00
2022-09-18T02:11:55.318Z,11.00
2022-09-18T02:15:05.952Z,11.00
2022-09-18T02:18:13.001Z,11.00
2022-09-18T02:21:19.487Z,10.90
2022-09-18T02:24:27.608Z,10.90
2022-09-18T02:27:33.041Z,11.00
2022-09-18T02:30:39.445Z,11.00
2022-09-18T02:33:42.296Z,11.00
2022-09-18T02:37:05.922Z,11.00
2022-09-18T02:40:20.732Z,11.00
2022-09-18T02:43:38.364Z,11.00
2022-09-18T02:46:52.964Z,11.00
2022-09-18T02:50:03.652Z,11.00
2022-09-18T02:53:11.316Z,11.00
2022-09-18T02:56:22.648Z,11.00
2022-09-18T02:59:29.940Z,11.00
2022-09-18T03:02:34.348Z,11.00
2022-09-18T03:05:37.257Z,11.00
2022-09-18T03:08:40.457Z,11.00
2022-09-18T03:11:43.324Z,10.90
2022-09-18T03:14:46.123Z,10.90
2022-09-18T03:17:50.338Z,10.90
2022-09-18T03:20:53.158Z,10.90
2022-09-18T03:23:56.177Z,10.90
2022-09-18T03:26:59.237Z,10.90
2022-09-18T03:30:01.997Z,10.90
2022-09-18T03:36:33.091Z,10.90
2022-09-18T03:39:36.002Z,10.80
2022-09-18T03:42:38.824Z,10.80
2022-09-18T03:45:41.667Z,10.80
2022-09-18T03:48:45.875Z,10.80
2022-09-18T03:51:48.848Z,10.80
2022-09-18T03:54:51.757Z,10.80
2022-09-18T03:57:54.584Z,10.80
2022-09-18T04:00:57.455Z,10.80
2022-09-18T04:04:01.680Z,10.80
2022-09-18T04:07:04.554Z,10.80
2022-09-18T04:10:09.129Z,10.80
2022-09-18T04:13:12.028Z,10.80
2022-09-18T04:16:14.942Z,10.70
2022-09-18T04:19:19.223Z,10.70
2022-09-18T04:22:22.100Z,10.70
2022-09-18T04:25:24.957Z,10.70
2022-09-18T04:28:27.784Z,10.70
2022-09-18T04:31:30.756Z,10.70
2022-09-18T04:34:35.041Z,10.70
2022-09-18T04:37:38.023Z,10.70
2022-09-18T04:40:40.947Z,10.70
2022-09-18T04:43:44.030Z,10.70
2022-09-18T04:46:46.927Z,10.70
2022-09-18T04:49:52.526Z,10.60
2022-09-18T04:52:55.375Z,10.60
2022-09-18T04:55:58.360Z,10.60
2022-09-18T04:59:01.188Z,10.60
2022-09-18T05:02:04.249Z,10.60
2022-09-18T05:05:09.543Z,10.60
2022-09-18T05:08:12.402Z,10.60
2022-09-18T05:11:15.202Z,10.50
2022-09-18T05:14:18.033Z,10.50
2022-09-18T05:17:20.925Z,10.50
2022-09-18T05:20:25.160Z,10.50
2022-09-18T05:23:27.998Z,10.50
2022-09-18T05:26:31.388Z,10.50
2022-09-18T05:29:34.320Z,10.50
2022-09-18T05:32:37.171Z,10.50
2022-09-18T05:35:42.198Z,10.50
2022-09-18T05:38:45.607Z,10.50
2022-09-18T05:41:51.127Z,10.40
2022-09-18T05:44:54.719Z,10.40
2022-09-18T05:48:01.497Z,10.40
2022-09-18T05:51:06.159Z,10.40
2022-09-18T05:54:09.048Z,10.40
2022-09-18T05:57:11.945Z,10.40
2022-09-18T06:00:15.875Z,10.40
2022-09-18T06:03:19.009Z,10.30
2022-09-18T06:06:23.265Z,10.30
2022-09-18T06:09:26.356Z,10.30
2022-09-18T06:12:29.166Z,10.40
2022-09-18T06:15:32.403Z,10.40
2022-09-18T06:18:35.266Z,10.40
2022-09-18T06:21:39.480Z,10.40
2022-09-18T06:24:42.310Z,10.40
2022-09-18T06:27:45.135Z,10.40
2022-09-18T06:30:48.003Z,10.50
2022-09-18T06:33:50.891Z,10.50
2022-09-18T06:36:55.045Z,10.60
2022-09-18T06:39:57.873Z,10.90
2022-09-18T06:43:02.648Z,11.20
2022-09-18T06:46:07.942Z,11.30
2022-09-18T06:49:10.950Z,11.30
2022-09-18T06:52:15.191Z,11.30
2022-09-18T06:55:18.674Z,11.20
2022-09-18T06:58:21.797Z,11.10
2022-09-18T07:01:24.876Z,11.10
2022-09-18T07:04:27.775Z,11.20
2022-09-18T07:07:31.990Z,11.40
2022-09-18T07:10:34.788Z,11.40
2022-09-18T07:13:38.276Z,11.50
2022-09-18T07:16:41.243Z,11.40
2022-09-18T07:19:44.125Z,11.40
2022-09-18T07:22:53.630Z,11.40
2022-09-18T07:25:56.555Z,11.50
2022-09-18T07:28:59.348Z,11.40
2022-09-18T07:32:02.130Z,11.40
2022-09-18T07:35:06.512Z,11.50
2022-09-18T07:38:11.385Z,11.60
2022-09-18T07:41:14.201Z,11.60
2022-09-18T07:44:17.006Z,11.60
2022-09-18T07:47:19.811Z,11.60
2022-09-18T07:50:23.152Z,11.60
2022-09-18T07:53:29.385Z,11.70
2022-09-18T07:56:32.244Z,11.80
2022-09-18T07:59:35.076Z,11.80
2022-09-18T08:02:38.002Z,11.90
2022-09-18T08:05:41.819Z,12.00
2022-09-18T08:08:46.909Z,12.00
2022-09-18T08:11:52.842Z,12.10
2022-09-18T08:14:55.674Z,12.10
2022-09-18T08:17:58.949Z,12.30
2022-09-18T08:21:01.770Z,12.40
2022-09-18T08:24:06.330Z,12.40
2022-09-18T08:27:09.175Z,12.40
2022-09-18T08:30:14.531Z,12.50
2022-09-18T08:33:17.392Z,12.50
2022-09-18T08:36:20.215Z,12.50
2022-09-18T08:39:24.524Z,12.50
2022-09-18T08:42:35.856Z,12.50
2022-09-18T08:45:52.657Z,12.50
2022-09-18T08:49:06.393Z,12.60
2022-09-18T08:52:15.108Z,12.70
2022-09-18T08:55:27.363Z,12.80
2022-09-18T08:58:35.338Z,12.80
2022-09-18T09:01:46.178Z,13.00
2022-09-18T09:04:49.352Z,13.10
2022-09-18T09:08:33.837Z,13.10
2022-09-18T09:11:47.053Z,13.30
2022-09-18T09:15:05.046Z,13.50
2022-09-18T09:18:17.832Z,13.50
2022-09-18T09:21:24.153Z,13.40
2022-09-18T09:24:32.714Z,13.30
2022-09-18T09:27:41.587Z,13.30
2022-09-18T09:30:48.026Z,13.30
2022-09-18T09:33:56.700Z,13.40
2022-09-18T09:37:04.886Z,13.40
2022-09-18T09:40:15.663Z,13.50
2022-09-18T09:43:28.515Z,13.60
2022-09-18T09:47:01.349Z,13.70
2022-09-18T09:50:13.754Z,13.80
2022-09-18T09:53:16.646Z,13.90
2022-09-18T09:56:25.675Z,13.90
2022-09-18T09:59:39.707Z,13.90
2022-09-18T10:03:01.461Z,13.80
2022-09-18T10:06:12.850Z,13.80
2022-09-18T10:09:22.639Z,13.60
2022-09-18T10:12:31.269Z,13.40
2022-09-18T10:15:39.557Z,13.20
2022-09-18T10:18:45.186Z,13.20
2022-09-18T10:21:50.323Z,13.50
2022-09-18T10:25:00.185Z,13.60
2022-09-18T10:28:03.180Z,13.70
2022-09-18T10:31:10.669Z,13.80
2022-09-18T10:34:33.406Z,14.00
2022-09-18T10:37:40.735Z,14.10
2022-09-18T10:40:43.809Z,13.90
2022-09-18T10:43:55.455Z,13.80
2022-09-18T10:47:07.334Z,13.80
2022-09-18T10:50:19.383Z,14.10
2022-09-18T10:53:29.723Z,14.50
2022-09-18T10:56:33.368Z,14.70
2022-09-18T10:59:36.630Z,14.70
2022-09-18T11:02:45.624Z,14.50
2022-09-18T11:05:52.624Z,14.20
2022-09-18T11:08:57.639Z,14.00
2022-09-18T11:12:00.888Z,13.90
2022-09-18T11:15:06.202Z,14.00
2022-09-18T11:18:16.249Z,14.30
2022-09-18T11:21:19.122Z,14.50
2022-09-18T11:24:27.435Z,14.80
2022-09-18T11:27:44.438Z,15.00
2022-09-18T11:30:57.486Z,14.90
2022-09-18T11:34:06.267Z,14.40
2022-09-18T11:37:12.513Z,13.90
2022-09-18T11:40:22.173Z,13.70
2022-09-18T11:43:27.652Z,13.50
2022-09-18T11:46:42.087Z,13.60
2022-09-18T11:49:49.972Z,13.80
2022-09-18T11:52:55.308Z,14.00
2022-09-18T11:56:03.815Z,14.10
2022-09-18T11:59:11.961Z,14.30
2022-09-18T12:02:21.961Z,14.50
2022-09-18T12:05:30.015Z,14.70
2022-09-18T12:08:47.123Z,15.00
2022-09-18T12:11:55.806Z,15.30
2022-09-18T12:15:04.405Z,15.40
2022-09-18T12:18:13.112Z,15.60
2022-09-18T12:21:21.144Z,15.60
2022-09-18T12:24:24.166Z,15.20
2022-09-18T12:27:35.576Z,14.70
2022-09-18T12:30:47.424Z,14.10
2022-09-18T12:33:57.168Z,13.60
2022-09-18T12:37:16.739Z,13.40
2022-09-18T12:40:38.165Z,13.40
2022-09-18T12:44:03.020Z,13.60
2022-09-18T12:47:27.727Z,13.70
2022-09-18T12:50:47.258Z,13.90
2022-09-18T12:54:06.242Z,14.10
2022-09-18T12:57:32.938Z,14.30
2022-09-18T13:00:39.088Z,14.40
2022-09-18T13:03:43.998Z,14.50
2022-09-18T13:06:53.297Z,14.60
2022-09-18T13:10:15.390Z,14.50
2022-09-18T13:13:23.662Z,14.50
2022-09-18T13:16:34.352Z,14.50
2022-09-18T13:19:43.981Z,14.60
2022-09-18T13:22:53.207Z,14.70
2022-09-18T13:25:59.402Z,14.70
2022-09-18T13:29:03.381Z,14.60
2022-09-18T13:32:06.409Z,14.60
2022-09-18T13:35:21.807Z,14.50
2022-09-18T13:38:27.809Z,14.40
2022-09-18T13:41:43.130Z,14.60
2022-09-18T13:44:51.093Z,14.80
2022-09-18T13:48:04.819Z,14.80
2022-09-18T13:51:11.921Z,14.90
2022-09-18T13:54:35.941Z,14.80
2022-09-18T13:57:41.264Z,14.60
2022-09-18T14:00:44.111Z,14.50
2022-09-18T14:03:47.092Z,14.30
2022-09-18T14:06:49.980Z,14.10
2022-09-18T14:09:54.928Z,14.10
2022-09-18T14:13:25.145Z,14.10
2022-09-18T14:16:41.331Z,14.00
2022-09-18T14:19:45.995Z,14.00
2022-09-18T14:22:49.052Z,13.90
2022-09-18T14:25:52.170Z,13.80
2022-09-18T14:28:57.008Z,13.60
2022-09-18T14:32:01.330Z,13.50
2022-09-18T14:35:29.219Z,13.50
2022-09-18T14:38:35.232Z,13.40
2022-09-18T14:41:39.250Z,13.40
2022-09-18T14:44:48.779Z,13.40
2022-09-18T14:47:51.756Z,13.40
2022-09-18T14:51:04.332Z,13.30
2022-09-18T14:54:21.423Z,13.20
2022-09-18T14:57:27.580Z,13.20
2022-09-18T15:00:34.482Z,13.00
2022-09-18T15:03:42.609Z,13.10
2022-09-18T15:06:47.375Z,13.00
2022-09-18T15:09:53.577Z,13.00
2022-09-18T15:12:58.694Z,12.90
2022-09-18T15:16:05.113Z,13.00
2022-09-18T15:19:18.246Z,13.20
2022-09-18T15:22:22.939Z,13.30
2022-09-18T15:25:29.641Z,13.40
2022-09-18T15:28:35.593Z,13.30
2022-09-18T15:31:39.964Z,13.30
2022-09-18T15:34:48.965Z,13.30
2022-09-18T15:37:54.426Z,13.30
2022-09-18T15:40:57.354Z,13.20
2022-09-18T15:44:00.629Z,13.10
2022-09-18T15:47:30.605Z,13.00
2022-09-18T15:50:41.080Z,12.90
2022-09-18T15:54:02.685Z,12.90
2022-09-18T15:57:05.832Z,12.80
2022-09-18T16:00:19.253Z,12.70
2022-09-18T16:03:24.001Z,12.70
2022-09-18T16:06:29.052Z,12.60
2022-09-18T16:09:41.328Z,12.60
2022-09-18T16:12:44.245Z,12.60
2022-09-18T16:15:48.301Z,12.60
2022-09-18T16:18:56.107Z,12.50
2022-09-18T16:22:07.896Z,12.50
2022-09-18T16:25:14.148Z,12.40
2022-09-18T16:28:25.203Z,12.20
2022-09-18T16:31:29.929Z,12.20
2022-09-18T16:34:34.141Z,12.20
2022-09-18T16:37:37.959Z,12.10
2022-09-18T16:40:43.520Z,12.10
2022-09-18T16:43:46.436Z,12.10
2022-09-18T16:46:52.267Z,12.10
2022-09-18T16:49:56.581Z,12.10
2022-09-18T16:53:01.653Z,12.10
2022-09-18T16:56:09.401Z,12.10
2022-09-18T16:59:12.593Z,11.90
2022-09-18T17:02:19.335Z,11.80
2022-09-18T17:05:23.552Z,11.80
2022-09-18T17:08:26.551Z,11.60
2022-09-18T17:11:29.431Z,11.50
2022-09-18T17:14:32.303Z,11.30
2022-09-18T17:17:35.145Z,11.10
2022-09-18T17:20:39.536Z,11.00
2022-09-18T17:23:42.433Z,10.90
2022-09-18T17:26:45.314Z,10.80
2022-09-18T17:29:48.199Z,10.60
2022-09-18T17:32:50.974Z,10.60
2022-09-18T17:35:55.156Z,10.50
2022-09-18T17:39:02.230Z,10.50
2022-09-18T17:42:05.676Z,10.40
2022-09-18T17:45:09.504Z,10.40
2022-09-18T17:48:12.324Z,10.30
2022-09-18T17:51:18.515Z,10.20
2022-09-18T17:54:21.555Z,10.30
2022-09-18T17:57:24.356Z,10.20
2022-09-18T18:00:27.460Z,10.20
2022-09-18T18:03:30.273Z,10.10
2022-09-18T18:06:35.239Z,10.10
2022-09-18T18:09:38.326Z,10.20
2022-09-18T18:12:41.197Z,10.10
2022-09-18T18:15:44.075Z,10.00
2022-09-18T18:18:46.893Z,10.00
2022-09-18T18:21:51.132Z,9.90
2022-09-18T18:24:53.926Z,9.90
2022-09-18T18:27:57.044Z,9.80
2022-09-18T18:31:05.801Z,9.80
2022-09-18T18:34:10.751Z,9.80
2022-09-18T18:37:15.205Z,9.80
2022-09-18T18:40:18.216Z,9.80
2022-09-18T18:43:23.081Z,9.80
2022-09-18T18:46:28.644Z,9.80
2022-09-18T18:49:32.873Z,9.70
2022-09-18T18:52:37.126Z,9.80
2022-09-18T18:55:39.947Z,9.80
2022-09-18T18:58:43.941Z,9.80
2022-09-18T19:01:47.355Z,9.80
2022-09-18T19:04:50.497Z,9.80
2022-09-18T19:07:54.730Z,9.80
2022-09-18T19:10:58.913Z,9.80
2022-09-18T19:14:01.860Z,9.80
2022-09-18T19:17:05.420Z,9.70
2022-09-18T19:20:08.851Z,9.90
2022-09-18T19:23:16.115Z,9.90
2022-09-18T19:26:19.885Z,10.00
2022-09-18T19:29:23.101Z,10.00
2022-09-18T19:32:25.926Z,10.00
2022-09-18T19:35:28.943Z,10.00
2022-09-18T19:38:36.889Z,10.00
2022-09-18T19:41:42.939Z,10.00
2022-09-18T19:44:48.136Z,10.00
2022-09-18T19:47:51.723Z,10.10
2022-09-18T19:50:54.752Z,10.10
2022-09-18T19:53:58.953Z,10.10
2022-09-18T19:57:01.772Z,10.10
2022-09-18T20:00:05.649Z,10.10
2022-09-18T20:03:08.997Z,10.00
2022-09-18T20:06:12.233Z,10.00
2022-09-18T20:09:16.416Z,10.10
2022-09-18T20:12:19.327Z,10.00
2022-09-18T20:15:22.165Z,10.00
2022-09-18T20:18:24.976Z,10.00
2022-09-18T20:21:27.892Z,10.00
2022-09-18T20:24:33.119Z,10.00
2022-09-18T20:27:38.390Z,10.00
2022-09-18T20:30:41.201Z,10.00
2022-09-18T20:33:44.597Z,10.00
2022-09-18T20:36:49.494Z,10.00
2022-09-18T20:39:54.258Z,10.00
2022-09-18T20:42:57.213Z,10.00
2022-09-18T20:46:01.228Z,10.00
2022-09-18T20:49:04.240Z,10.00
2022-09-18T20:52:10.286Z,9.90
2022-09-18T20:55:18.190Z,9.90
2022-09-18T20:58:21.051Z,9.90
2022-09-18T21:01:25.544Z,9.90
2022-09-18T21:04:29.100Z,9.90
2022-09-18T21:07:32.315Z,9.90
2022-09-18T21:10:46.535Z,9.80
2022-09-18T21:13:49.827Z,9.80
2022-09-18T21:16:52.776Z,9.80
2022-09-18T21:19:55.887Z,9.80
2022-09-18T21:23:16.207Z,9.80
2022-09-18T21:26:20.832Z,9.80
2022-09-18T21:29:26.143Z,9.80
2022-09-18T21:32:30.785Z,9.80
2022-09-18T21:35:34.297Z,9.80
2022-09-18T21:38:37.756Z,9.80
2022-09-18T21:41:46.225Z,9.80
2022-09-18T21:44:49.304Z,9.80
2022-09-18T21:47:52.198Z,9.80
2022-09-18T21:50:55.094Z,9.80
2022-09-18T21:53:59.044Z,9.80
2022-09-18T21:57:03.271Z,9.80
2022-09-18T22:00:09.502Z,9.80
2022-09-18T22:03:13.191Z,9.80
2022-09-18T22:06:16.022Z,9.80
2022-09-18T22:09:21.230Z,9.80
2022-09-18T22:12:25.405Z,9.80
2022-09-18T22:15:28.602Z,9.80
2022-09-18T22:18:31.355Z,9.80
2022-09-18T22:21:37.952Z,9.80
2022-09-18T22:24:40.993Z,9.80
2022-09-18T22:27:45.226Z,9.80
2022-09-18T22:30:48.100Z,9.80
2022-09-18T22:33:54.697Z,9.80
2022-09-18T22:36:58.688Z,9.80
2022-09-18T22:40:01.574Z,9.80
2022-09-18T22:43:05.813Z,9.80
2022-09-18T22:46:11.095Z,9.80
2022-09-18T22:49:15.490Z,9.90
2022-09-18T22:52:18.644Z,9.90
2022-09-18T22:55:21.679Z,9.90
2022-09-18T22:58:25.925Z,9.90
2022-09-18T23:01:32.193Z,9.90
2022-09-18T23:04:36.733Z,9.90
2022-09-18T23:07:39.588Z,9.90
2022-09-18T23:10:42.447Z,9.90
2022-09-18T23:13:51.335Z,9.90
2022-09-18T23:16:54.525Z,9.90
2022-09-18T23:19:57.396Z,9.90
2022-09-18T23:23:00.199Z,9.90
2022-09-18T23:26:05.296Z,9.90
2022-09-18T23:29:12.708Z,10.00
2022-09-18T23:32:15.661Z,10.00
2022-09-18T23:35:18.497Z,10.10
2022-09-18T23:38:21.360Z,10.10
2022-09-18T23:41:24.525Z,10.10
2022-09-18T23:44:31.039Z,10.10
2022-09-18T23:47:37.149Z,10.10
2022-09-18T23:50:43.178Z,10.10
2022-09-18T23:53:46.009Z,10.10
2022-09-18T23:56:49.327Z,10.20
2022-09-18T23:59:54.081Z,10.10
